createdAt,value
2024-05-09T00:00:57.972Z,25.18
2024-05-09T00:03:00.892Z,25.17
2024-05-09T00:05:03.218Z,25.16
2024-05-09T00:07:05.064Z,25.15
2024-05-09T00:09:06.772Z,25.15
2024-05-09T00:11:08.621Z,25.13
2024-05-09T00:13:11.384Z,25.13
2024-05-09T00:15:13.281Z,25.15
2024-05-09T00:17:15.115Z,25.09
2024-05-09T00:19:17.024Z,25.12
2024-05-09T00:21:18.831Z,25.11
2024-05-09T00:23:20.968Z,25.10
2024-05-09T00:25:22.678Z,25.08
2024-05-09T00:27:25.357Z,25.05
2024-05-09T00:29:27.229Z,25.04
2024-05-09T00:31:29.101Z,25.03
2024-05-09T00:33:31.316Z,25.03
2024-05-09T00:35:33.337Z,25.03
2024-05-09T00:37:35.312Z,25.02
2024-05-09T00:39:37.645Z,25.01
2024-05-09T00:41:39.434Z,25.01
2024-05-09T00:43:43.937Z,25.01
2024-05-09T00:45:46.486Z,25.00
2024-05-09T00:47:48.717Z,24.98
2024-05-09T00:49:51.243Z,24.98
2024-05-09T00:51:56.570Z,24.98
2024-05-09T00:53:58.413Z,24.95
2024-05-09T00:56:00.545Z,24.94
2024-05-09T00:58:04.964Z,24.92
2024-05-09T01:00:22.328Z,24.91
2024-05-09T01:02:32.684Z,24.89
2024-05-09T01:04:34.618Z,24.89
2024-05-09T01:06:36.678Z,24.88
2024-05-09T01:08:38.683Z,24.88
2024-05-09T01:10:43.923Z,24.88
2024-05-09T01:12:46.945Z,24.87
2024-05-09T01:14:49.036Z,24.87
2024-05-09T01:16:51.169Z,24.86
2024-05-09T01:18:53.063Z,24.86
2024-05-09T01:20:54.886Z,24.84
2024-05-09T01:22:58.052Z,24.83
2024-05-09T01:24:59.962Z,24.82
2024-05-09T01:27:01.681Z,24.80
2024-05-09T01:29:03.711Z,24.79
2024-05-09T01:31:05.560Z,24.76
2024-05-09T01:33:09.874Z,24.76
2024-05-09T01:35:13.474Z,24.76
2024-05-09T01:37:15.197Z,24.77
2024-05-09T01:39:17.191Z,24.74
2024-05-09T01:41:19.117Z,24.75
2024-05-09T01:43:20.976Z,24.76
2024-05-09T01:45:22.731Z,24.75
2024-05-09T01:47:24.714Z,24.74
2024-05-09T01:49:26.885Z,24.72
2024-05-09T01:51:28.727Z,24.74
2024-05-09T01:53:30.540Z,24.71
2024-05-09T01:55:32.385Z,24.70
2024-05-09T01:57:34.167Z,24.70
2024-05-09T01:59:35.952Z,24.68
2024-05-09T02:01:56.055Z,24.66
2024-05-09T02:03:59.865Z,24.65
2024-05-09T02:06:01.912Z,24.65
2024-05-09T02:08:04.788Z,24.64
2024-05-09T02:10:10.980Z,24.64
2024-05-09T02:12:18.467Z,24.64
2024-05-09T02:14:20.680Z,24.65
2024-05-09T02:16:22.395Z,24.63
2024-05-09T02:18:27.275Z,24.63
2024-05-09T02:20:36.323Z,24.61
2024-05-09T02:22:38.980Z,24.58
2024-05-09T02:24:40.715Z,24.62
2024-05-09T02:26:42.396Z,24.60
2024-05-09T02:28:44.112Z,24.58
2024-05-09T02:30:45.815Z,24.58
2024-05-09T02:32:47.764Z,24.58
2024-05-09T02:34:49.782Z,24.58
2024-05-09T02:36:51.505Z,24.58
2024-05-09T02:38:53.397Z,24.59
2024-05-09T02:40:55.171Z,24.59
2024-05-09T02:42:57.048Z,24.57
2024-05-09T02:44:58.857Z,24.60
2024-05-09T02:47:00.589Z,24.60
2024-05-09T02:49:02.435Z,24.57
2024-05-09T02:51:04.700Z,24.58
2024-05-09T02:53:12.634Z,24.58
2024-05-09T02:55:14.567Z,24.55
2024-05-09T02:57:16.267Z,24.55
2024-05-09T02:59:17.968Z,24.55
2024-05-09T03:01:19.946Z,24.56
2024-05-09T03:03:22.224Z,24.55
2024-05-09T03:05:24.219Z,24.54
2024-05-09T03:07:25.902Z,24.55
2024-05-09T03:09:27.988Z,24.54
2024-05-09T03:11:29.951Z,24.55
2024-05-09T03:13:31.882Z,24.56
2024-05-09T03:15:33.613Z,24.55
2024-05-09T03:17:35.764Z,24.54
2024-05-09T03:19:37.776Z,24.54
2024-05-09T03:21:40.301Z,24.54
2024-05-09T03:23:42.909Z,24.52
2024-05-09T03:25:44.811Z,24.50
2024-05-09T03:27:46.629Z,24.51
2024-05-09T03:29:48.430Z,24.47
2024-05-09T03:31:50.255Z,24.49
2024-05-09T03:33:52.253Z,24.48
2024-05-09T03:35:54.073Z,24.49
2024-05-09T03:37:56.036Z,24.50
2024-05-09T03:39:57.732Z,24.48
2024-05-09T03:41:59.554Z,24.49
2024-05-09T03:44:01.268Z,24.49
2024-05-09T03:46:03.147Z,24.50
2024-05-09T03:48:05.239Z,24.48
2024-05-09T03:50:12.133Z,24.48
2024-05-09T03:52:17.228Z,24.48
2024-05-09T03:54:18.973Z,24.46
2024-05-09T03:56:20.805Z,24.46
2024-05-09T03:58:22.794Z,24.43
2024-05-09T04:00:31.442Z,24.44
2024-05-09T04:02:42.837Z,24.40
2024-05-09T04:04:45.040Z,24.40
2024-05-09T04:06:46.858Z,24.41
2024-05-09T04:08:48.710Z,24.41
2024-05-09T04:10:50.530Z,24.42
2024-05-09T04:12:53.256Z,24.41
2024-05-09T04:14:56.006Z,24.41
2024-05-09T04:16:57.721Z,24.42
2024-05-09T04:18:59.479Z,24.41
2024-05-09T04:21:02.934Z,24.40
2024-05-09T04:23:05.701Z,24.39
2024-05-09T04:25:07.596Z,24.38
2024-05-09T04:27:09.285Z,24.37
2024-05-09T04:29:13.648Z,24.37
2024-05-09T04:31:15.379Z,24.34
2024-05-09T04:33:19.258Z,24.37
2024-05-09T04:35:22.448Z,24.36
2024-05-09T04:37:25.518Z,24.36
2024-05-09T04:39:27.535Z,24.35
2024-05-09T04:41:30.072Z,24.36
2024-05-09T04:43:33.280Z,24.35
2024-05-09T04:45:35.698Z,24.34
2024-05-09T04:47:37.826Z,24.33
2024-05-09T04:49:39.737Z,24.32
2024-05-09T04:51:41.908Z,24.31
2024-05-09T04:53:43.723Z,24.31
2024-05-09T04:55:45.968Z,24.31
2024-05-09T04:57:48.116Z,24.29
2024-05-09T04:59:49.821Z,24.27
2024-05-09T05:01:51.688Z,24.25
2024-05-09T05:03:55.879Z,24.24
2024-05-09T05:05:58.049Z,24.22
2024-05-09T05:08:00.770Z,24.24
2024-05-09T05:10:04.480Z,24.22
2024-05-09T05:12:30.739Z,24.23
2024-05-09T05:14:32.567Z,24.23
2024-05-09T05:16:34.355Z,24.22
2024-05-09T05:18:36.178Z,24.22
2024-05-09T05:20:38.545Z,24.22
2024-05-09T05:22:43.119Z,24.20
2024-05-09T05:24:44.860Z,24.21
2024-05-09T05:26:46.558Z,24.20
2024-05-09T05:28:48.344Z,24.19
2024-05-09T05:30:50.382Z,24.17
2024-05-09T05:32:52.442Z,24.16
2024-05-09T05:34:54.300Z,24.17
2024-05-09T05:36:55.993Z,24.19
2024-05-09T05:38:57.744Z,24.18
2024-05-09T05:40:59.644Z,24.19
2024-05-09T05:43:01.396Z,24.19
2024-05-09T05:45:04.603Z,24.18
2024-05-09T05:47:07.964Z,24.18
2024-05-09T05:49:09.961Z,24.18
2024-05-09T05:51:12.201Z,24.19
2024-05-09T05:53:14.271Z,24.17
2024-05-09T05:55:16.144Z,24.17
2024-05-09T05:57:19.073Z,24.17
2024-05-09T05:59:23.995Z,24.16
2024-05-09T06:01:25.811Z,24.12
2024-05-09T06:03:29.321Z,24.15
2024-05-09T06:05:31.250Z,24.15
2024-05-09T06:07:33.158Z,24.16
2024-05-09T06:09:34.897Z,24.17
2024-05-09T06:11:36.757Z,24.18
2024-05-09T06:13:42.893Z,24.17
2024-05-09T06:15:44.691Z,24.17
2024-05-09T06:17:46.634Z,24.16
2024-05-09T06:19:49.066Z,24.15
2024-05-09T06:21:50.942Z,24.14
2024-05-09T06:23:53.440Z,24.15
2024-05-09T06:25:55.253Z,24.14
2024-05-09T06:27:57.331Z,24.12
2024-05-09T06:29:59.027Z,24.12
2024-05-09T06:32:00.928Z,24.13
2024-05-09T06:34:02.969Z,24.12
2024-05-09T06:36:05.646Z,24.12
2024-05-09T06:38:10.516Z,24.13
2024-05-09T06:40:14.548Z,24.13
2024-05-09T06:42:16.480Z,24.11
2024-05-09T06:44:18.672Z,24.12
2024-05-09T06:46:20.699Z,24.10
2024-05-09T06:48:22.966Z,24.11
2024-05-09T06:50:28.327Z,24.10
2024-05-09T06:52:33.460Z,24.08
2024-05-09T06:54:35.202Z,24.08
2024-05-09T06:56:37.732Z,24.06
2024-05-09T06:58:39.618Z,24.06
2024-05-09T07:00:42.234Z,24.04
2024-05-09T07:02:44.442Z,24.06
2024-05-09T07:04:46.388Z,24.05
2024-05-09T07:06:48.111Z,24.04
2024-05-09T07:08:51.915Z,24.05
2024-05-09T07:10:54.282Z,24.05
2024-05-09T07:12:56.085Z,24.06
2024-05-09T07:14:57.815Z,24.04
2024-05-09T07:16:59.815Z,24.05
2024-05-09T07:19:02.067Z,24.04
2024-05-09T07:21:04.126Z,24.05
2024-05-09T07:23:08.983Z,24.04
2024-05-09T07:25:10.762Z,24.01
2024-05-09T07:27:12.741Z,24.01
2024-05-09T07:29:14.454Z,24.00
2024-05-09T07:31:16.175Z,24.01
2024-05-09T07:33:20.826Z,24.00
2024-05-09T07:35:24.257Z,24.01
2024-05-09T07:37:25.939Z,24.00
2024-05-09T07:39:28.471Z,24.01
2024-05-09T07:41:30.737Z,24.02
2024-05-09T07:43:32.520Z,24.02
2024-05-09T07:49:11.924Z,24.01
2024-05-09T07:51:51.331Z,24.01
2024-05-09T07:53:30.593Z,24.00
2024-05-09T07:54:45.726Z,23.99
2024-05-09T07:56:47.851Z,23.99
2024-05-09T07:58:51.022Z,23.99
2024-05-09T08:00:56.050Z,23.99
2024-05-09T08:02:58.382Z,23.99
2024-05-09T08:05:00.225Z,24.01
2024-05-09T08:07:02.119Z,24.02
2024-05-09T08:09:08.102Z,24.02
2024-05-09T08:11:13.245Z,24.02
2024-05-09T08:13:15.120Z,24.00
2024-05-09T08:15:16.893Z,24.03
2024-05-09T08:17:18.680Z,24.03
2024-05-09T08:19:20.725Z,24.01
2024-05-09T08:21:22.521Z,24.01
2024-05-09T08:23:24.511Z,23.99
2024-05-09T08:25:26.477Z,24.01
2024-05-09T08:27:28.286Z,23.99
2024-05-09T08:29:30.800Z,24.00
2024-05-09T08:31:37.356Z,24.02
2024-05-09T08:33:49.155Z,24.00
2024-05-09T08:35:50.988Z,24.01
2024-05-09T08:37:53.632Z,24.02
2024-05-09T08:39:55.744Z,24.02
2024-05-09T08:41:57.613Z,24.03
2024-05-09T08:43:59.331Z,24.03
2024-05-09T08:46:03.196Z,24.03
2024-05-09T08:48:08.207Z,24.03
2024-05-09T08:50:23.463Z,24.01
2024-05-09T08:52:30.821Z,24.01
2024-05-09T08:54:32.625Z,24.01
2024-05-09T08:56:35.500Z,24.01
2024-05-09T08:58:37.739Z,24.01
2024-05-09T09:00:42.004Z,24.01
2024-05-09T09:02:45.106Z,24.01
2024-05-09T09:05:00.092Z,24.01
2024-05-09T09:07:03.552Z,24.01
2024-05-09T09:09:05.703Z,24.02
2024-05-09T09:11:07.920Z,24.03
2024-05-09T09:13:11.427Z,24.02
2024-05-09T09:15:13.248Z,24.02
2024-05-09T09:17:16.319Z,24.02
2024-05-09T09:19:18.595Z,24.03
2024-05-09T09:21:20.480Z,24.02
2024-05-09T09:23:22.773Z,24.02
2024-05-09T09:25:24.810Z,24.01
2024-05-09T09:27:26.720Z,24.01
2024-05-09T09:29:28.497Z,24.01
2024-05-09T09:31:30.824Z,24.01
2024-05-09T09:33:35.373Z,23.98
2024-05-09T09:35:40.309Z,24.00
2024-05-09T09:37:45.405Z,24.00
2024-05-09T09:39:49.194Z,23.98
2024-05-09T09:41:51.854Z,24.00
2024-05-09T09:43:54.622Z,24.01
2024-05-09T09:45:59.732Z,24.01
2024-05-09T09:48:02.721Z,24.02
2024-05-09T09:50:11.826Z,24.02
2024-05-09T09:52:16.707Z,23.99
2024-05-09T09:54:20.091Z,24.02
2024-05-09T09:56:23.785Z,24.02
2024-05-09T09:58:26.256Z,24.02
2024-05-09T10:00:32.950Z,24.02
2024-05-09T10:02:35.933Z,24.03
2024-05-09T10:04:38.347Z,24.04
2024-05-09T10:06:44.008Z,24.08
2024-05-09T10:08:47.930Z,24.12
2024-05-09T10:10:50.559Z,24.17
2024-05-09T10:12:58.561Z,24.23
2024-05-09T10:15:07.352Z,24.31
2024-05-09T10:17:09.130Z,24.36
2024-05-09T10:19:26.659Z,24.44
2024-05-09T10:21:28.459Z,24.49
2024-05-09T10:23:32.468Z,24.54
2024-05-09T10:25:34.472Z,24.62
2024-05-09T10:27:36.499Z,24.66
2024-05-09T10:29:38.219Z,24.73
2024-05-09T10:31:47.821Z,24.79
2024-05-09T10:33:52.541Z,24.83
2024-05-09T10:35:55.139Z,24.87
2024-05-09T10:37:57.551Z,24.92
2024-05-09T10:40:00.023Z,24.98
2024-05-09T10:42:02.311Z,25.03
2024-05-09T10:44:11.364Z,25.05
2024-05-09T10:46:14.407Z,25.09
2024-05-09T10:48:16.415Z,25.12
2024-05-09T10:50:25.473Z,25.17
2024-05-09T10:52:30.674Z,25.20
2024-05-09T10:54:39.411Z,25.24
2024-05-09T10:56:42.121Z,25.27
2024-05-09T10:58:44.042Z,25.30
2024-05-09T11:00:46.030Z,25.33
2024-05-09T11:02:48.335Z,25.37
2024-05-09T11:04:50.256Z,25.40
2024-05-09T11:06:52.232Z,25.43
2024-05-09T11:08:54.105Z,25.45
2024-05-09T11:10:56.531Z,25.50
2024-05-09T11:12:58.465Z,25.55
2024-05-09T11:15:00.205Z,25.57
2024-05-09T11:17:07.306Z,25.62
2024-05-09T11:19:14.104Z,25.66
2024-05-09T11:21:19.340Z,25.68
2024-05-09T11:23:22.549Z,25.71
2024-05-09T11:25:24.413Z,25.74
2024-05-09T11:27:26.256Z,25.76
2024-05-09T11:29:44.753Z,25.81
2024-05-09T11:31:47.530Z,25.83
2024-05-09T11:33:49.643Z,25.86
2024-05-09T11:35:51.421Z,25.89
2024-05-09T11:37:53.269Z,25.90
2024-05-09T11:39:55.057Z,25.93
2024-05-09T11:41:57.789Z,25.94
2024-05-09T11:43:59.822Z,25.96
2024-05-09T11:46:03.543Z,25.97
2024-05-09T11:48:06.111Z,26.00
2024-05-09T11:50:12.970Z,26.01
2024-05-09T11:52:18.078Z,26.06
2024-05-09T11:54:19.785Z,26.07
2024-05-09T11:56:22.167Z,26.10
2024-05-09T11:58:24.001Z,26.11
2024-05-09T12:00:33.964Z,26.11
2024-05-09T12:02:39.162Z,26.14
2024-05-09T12:04:41.035Z,26.11
2024-05-09T12:06:42.954Z,26.14
2024-05-09T12:08:44.794Z,26.15
2024-05-09T12:10:47.168Z,26.17
2024-05-09T12:12:49.183Z,26.17
2024-05-09T12:14:50.872Z,26.19
2024-05-09T12:16:52.649Z,26.22
2024-05-09T12:18:54.434Z,26.25
2024-05-09T12:20:56.646Z,26.26
2024-05-09T12:22:58.704Z,26.28
2024-05-09T12:25:00.512Z,26.28
2024-05-09T12:27:02.339Z,26.30
2024-05-09T12:29:04.123Z,26.31
2024-05-09T12:31:05.908Z,26.31
2024-05-09T12:33:09.730Z,26.32
2024-05-09T12:35:11.757Z,26.33
2024-05-09T12:37:13.922Z,26.33
2024-05-09T12:39:15.755Z,26.36
2024-05-09T12:41:17.759Z,26.36
2024-05-09T12:43:19.819Z,26.37
2024-05-09T12:45:21.852Z,26.39
2024-05-09T12:47:23.666Z,26.41
2024-05-09T12:49:25.692Z,26.43
2024-05-09T12:51:27.708Z,26.44
2024-05-09T12:53:29.391Z,26.46
2024-05-09T12:55:37.605Z,26.47
2024-05-09T12:57:46.461Z,26.47
2024-05-09T12:59:48.293Z,26.48
2024-05-09T13:01:50.120Z,26.49
2024-05-09T13:03:52.231Z,26.48
2024-05-09T13:05:54.606Z,26.49
2024-05-09T13:07:57.132Z,26.51
2024-05-09T13:09:59.042Z,26.53
2024-05-09T13:12:00.791Z,26.54
2024-05-09T13:14:02.893Z,26.58
2024-05-09T13:16:05.016Z,26.59
2024-05-09T13:18:07.563Z,26.60
2024-05-09T13:20:15.165Z,26.61
2024-05-09T13:22:24.713Z,26.61
2024-05-09T13:24:26.413Z,26.63
2024-05-09T13:26:28.136Z,26.64
2024-05-09T13:28:33.798Z,26.63
2024-05-09T13:30:40.331Z,26.63
2024-05-09T13:32:44.107Z,26.63
2024-05-09T13:34:45.894Z,26.65
2024-05-09T13:36:47.714Z,26.63
2024-05-09T13:38:49.612Z,26.63
2024-05-09T13:40:51.579Z,26.62
2024-05-09T13:42:53.805Z,26.61
2024-05-09T13:44:55.763Z,26.58
2024-05-09T13:46:58.048Z,26.55
2024-05-09T13:48:59.932Z,26.55
2024-05-09T13:51:01.759Z,26.55
2024-05-09T13:53:06.707Z,26.53
2024-05-09T13:55:10.920Z,26.53
2024-05-09T13:57:13.079Z,26.52
2024-05-09T13:59:14.777Z,26.50
2024-05-09T14:01:16.850Z,26.49
2024-05-09T14:03:20.403Z,26.47
2024-05-09T14:05:23.060Z,26.44
2024-05-09T14:07:25.053Z,26.42
2024-05-09T14:09:28.045Z,26.40
2024-05-09T14:11:29.886Z,26.35
2024-05-09T14:13:31.651Z,26.33
2024-05-09T14:15:33.429Z,26.31
2024-05-09T14:17:35.424Z,26.27
2024-05-09T14:19:37.538Z,26.24
2024-05-09T14:21:39.414Z,26.24
2024-05-09T14:23:41.263Z,26.23
2024-05-09T14:25:44.590Z,26.23
2024-05-09T14:27:47.297Z,26.18
2024-05-09T14:29:49.186Z,26.18
2024-05-09T14:31:50.936Z,26.17
2024-05-09T14:33:52.948Z,26.17
2024-05-09T14:35:55.145Z,26.16
2024-05-09T14:37:56.953Z,26.17
2024-05-09T14:39:59.275Z,26.16
2024-05-09T14:42:01.080Z,26.15
2024-05-09T14:44:02.912Z,26.15
2024-05-09T14:46:05.102Z,26.12
2024-05-09T14:48:07.840Z,26.13
2024-05-09T14:50:16.795Z,26.11
2024-05-09T14:52:25.138Z,26.09
2024-05-09T14:54:26.886Z,26.09
2024-05-09T14:56:28.875Z,26.08
2024-05-09T14:58:33.376Z,26.06
2024-05-09T15:00:41.517Z,26.04
2024-05-09T15:02:46.592Z,26.02
2024-05-09T15:04:49.812Z,26.01
2024-05-09T15:06:51.740Z,25.98
2024-05-09T15:08:57.389Z,25.96
2024-05-09T15:10:59.212Z,25.95
2024-05-09T15:13:01.441Z,25.93
2024-05-09T15:15:03.886Z,25.89
2024-05-09T15:17:05.989Z,25.87
2024-05-09T15:19:08.880Z,25.86
2024-05-09T15:21:10.842Z,25.82
2024-05-09T15:23:12.632Z,25.81
2024-05-09T15:25:14.623Z,25.79
2024-05-09T15:27:17.303Z,25.78
2024-05-09T15:29:19.140Z,25.75
2024-05-09T15:31:20.847Z,25.76
2024-05-09T15:33:22.841Z,25.74
2024-05-09T15:35:24.602Z,25.73
2024-05-09T15:37:27.134Z,25.72
2024-05-09T15:39:30.356Z,25.70
2024-05-09T15:41:32.121Z,25.69
2024-05-09T15:43:36.475Z,25.67
2024-05-09T15:45:39.299Z,25.65
2024-05-09T15:47:41.540Z,25.62
2024-05-09T15:49:43.531Z,25.60
2024-05-09T15:51:45.590Z,25.61
2024-05-09T15:53:47.506Z,25.61
2024-05-09T15:55:49.511Z,25.60
2024-05-09T15:57:51.305Z,25.59
2024-05-09T15:59:53.082Z,25.58
2024-05-09T16:01:55.642Z,25.56
2024-05-09T16:03:57.600Z,25.55
2024-05-09T16:05:59.570Z,25.55
2024-05-09T16:08:01.369Z,25.55
2024-05-09T16:10:06.557Z,25.53
2024-05-09T16:12:08.592Z,25.52
2024-05-09T16:14:10.401Z,25.51
2024-05-09T16:16:12.427Z,25.48
2024-05-09T16:18:14.308Z,25.47
2024-05-09T16:20:25.754Z,25.46
2024-05-09T16:22:35.935Z,25.46
2024-05-09T16:24:37.766Z,25.46
2024-05-09T16:26:39.511Z,25.44
2024-05-09T16:28:41.252Z,25.44
2024-05-09T16:30:43.084Z,25.43
2024-05-09T16:32:46.422Z,25.42
2024-05-09T16:34:48.448Z,25.43
2024-05-09T16:36:51.484Z,25.40
2024-05-09T16:38:53.240Z,25.40
2024-05-09T16:40:55.186Z,25.40
2024-05-09T16:42:56.958Z,25.39
2024-05-09T16:44:58.713Z,25.38
2024-05-09T16:47:00.525Z,25.37
2024-05-09T16:49:02.958Z,25.37
2024-05-09T16:51:05.026Z,25.36
2024-05-09T16:53:07.228Z,25.36
2024-05-09T16:55:09.349Z,25.36
2024-05-09T16:57:11.163Z,25.35
2024-05-09T16:59:13.203Z,25.34
2024-05-09T17:01:15.166Z,25.35
2024-05-09T17:03:17.599Z,25.35
2024-05-09T17:05:21.645Z,25.34
2024-05-09T17:07:23.538Z,25.34
2024-05-09T17:09:25.454Z,25.32
2024-05-09T17:11:27.230Z,25.34
2024-05-09T17:13:29.105Z,25.32
2024-05-09T17:15:31.977Z,25.32
2024-05-09T17:17:34.333Z,25.31
2024-05-09T17:19:40.528Z,25.30
2024-05-09T17:21:42.292Z,25.28
2024-05-09T17:23:44.061Z,25.28
2024-05-09T17:25:45.894Z,25.31
2024-05-09T17:27:48.095Z,25.30
2024-05-09T17:29:49.860Z,25.31
2024-05-09T17:31:51.639Z,25.29
2024-05-09T17:33:53.707Z,25.29
2024-05-09T17:35:55.572Z,25.28
2024-05-09T17:37:58.558Z,25.28
2024-05-09T17:40:00.356Z,25.25
2024-05-09T17:42:02.096Z,25.26
2024-05-09T17:44:03.953Z,25.25
2024-05-09T17:46:07.884Z,25.24
2024-05-09T17:48:11.220Z,25.23
2024-05-09T17:50:20.959Z,25.23
2024-05-09T17:52:28.575Z,25.23
2024-05-09T17:54:30.439Z,25.22
2024-05-09T17:56:32.334Z,25.22
2024-05-09T17:58:34.365Z,25.22
2024-05-09T18:00:39.992Z,25.21
2024-05-09T18:02:44.024Z,25.21
2024-05-09T18:04:45.925Z,25.22
2024-05-09T18:06:48.056Z,25.23
2024-05-09T18:08:49.790Z,25.22
2024-05-09T18:10:52.699Z,25.21
2024-05-09T18:12:56.147Z,25.20
2024-05-09T18:14:59.109Z,25.21
2024-05-09T18:17:00.899Z,25.21
2024-05-09T18:19:02.889Z,25.23
2024-05-09T18:21:04.860Z,25.23
2024-05-09T18:23:06.571Z,25.25
2024-05-09T18:25:08.539Z,25.23
2024-05-09T18:27:10.931Z,25.26
2024-05-09T18:29:12.673Z,25.26
2024-05-09T18:31:15.457Z,25.27
2024-05-09T18:33:17.384Z,25.25
2024-05-09T18:35:19.239Z,25.26
2024-05-09T18:37:21.032Z,25.25
2024-05-09T18:39:23.006Z,25.24
2024-05-09T18:41:24.748Z,25.26
2024-05-09T18:43:31.568Z,25.26
2024-05-09T18:45:40.275Z,25.26
2024-05-09T18:47:42.320Z,25.24
2024-05-09T18:49:44.405Z,25.24
2024-05-09T18:51:46.195Z,25.22
2024-05-09T18:53:48.111Z,25.22
2024-05-09T18:55:49.877Z,25.21
2024-05-09T18:57:51.695Z,25.23
2024-05-09T18:59:53.551Z,25.21
2024-05-09T19:01:55.382Z,25.22
2024-05-09T19:03:57.378Z,25.23
2024-05-09T19:05:59.396Z,25.22
2024-05-09T19:08:01.574Z,25.22
2024-05-09T19:10:03.620Z,25.23
2024-05-09T19:12:06.514Z,25.23
2024-05-09T19:14:08.516Z,25.22
2024-05-09T19:16:10.708Z,25.22
2024-05-09T19:18:13.906Z,25.21
2024-05-09T19:20:24.977Z,25.21
2024-05-09T19:22:31.721Z,25.19
2024-05-09T19:24:33.661Z,25.20
2024-05-09T19:26:35.638Z,25.19
2024-05-09T19:28:37.403Z,25.18
2024-05-09T19:30:41.970Z,25.19
2024-05-09T19:32:45.167Z,25.20
2024-05-09T19:34:46.986Z,25.20
2024-05-09T19:36:48.807Z,25.18
2024-05-09T19:38:51.538Z,25.20
2024-05-09T19:40:53.411Z,25.20
2024-05-09T19:42:55.265Z,25.21
2024-05-09T19:44:57.201Z,25.21
2024-05-09T19:46:59.046Z,25.22
2024-05-09T19:49:03.170Z,25.21
2024-05-09T19:51:05.538Z,25.20
2024-05-09T19:53:08.541Z,25.20
2024-05-09T19:55:10.435Z,25.21
2024-05-09T19:57:14.595Z,25.20
2024-05-09T19:59:16.520Z,25.21
2024-05-09T20:01:18.405Z,25.22
2024-05-09T20:03:20.321Z,25.22
2024-05-09T20:05:22.480Z,25.22
2024-05-09T20:07:24.311Z,25.20
2024-05-09T20:09:26.082Z,25.23
2024-05-09T20:11:27.915Z,25.23
2024-05-09T20:13:29.717Z,25.26
2024-05-09T20:15:32.328Z,25.26
2024-05-09T20:17:34.294Z,25.25
2024-05-09T20:19:36.167Z,25.24
2024-05-09T20:21:44.346Z,25.26
2024-05-09T20:23:46.079Z,25.25
2024-05-09T20:25:47.891Z,25.23
2024-05-09T20:27:49.645Z,25.23
2024-05-09T20:29:51.418Z,25.25
2024-05-09T20:31:53.197Z,25.26
2024-05-09T20:33:55.134Z,25.24
2024-05-09T20:36:01.644Z,25.26
2024-05-09T20:38:04.702Z,25.25
2024-05-09T20:40:12.031Z,25.24
2024-05-09T20:42:17.616Z,25.26
2024-05-09T20:44:19.423Z,25.27
2024-05-09T20:46:21.329Z,25.26
2024-05-09T20:48:24.692Z,25.26
2024-05-09T20:50:35.943Z,25.26
2024-05-09T20:52:41.723Z,25.27
2024-05-09T20:54:43.766Z,25.26
2024-05-09T20:56:45.487Z,25.26
2024-05-09T20:58:50.474Z,25.27
2024-05-09T21:00:52.442Z,25.24
2024-05-09T21:02:54.277Z,25.27
2024-05-09T21:04:56.460Z,25.28
2024-05-09T21:06:58.440Z,25.27
2024-05-09T21:09:00.160Z,25.26
2024-05-09T21:11:02.518Z,25.29
2024-05-09T21:13:05.663Z,25.28
2024-05-09T21:15:08.556Z,25.31
2024-05-09T21:17:10.639Z,25.31
2024-05-09T21:19:12.534Z,25.28
2024-05-09T21:21:14.494Z,25.30
2024-05-09T21:23:16.383Z,25.29
2024-05-09T21:25:18.279Z,25.29
2024-05-09T21:27:20.220Z,25.29
2024-05-09T21:29:21.983Z,25.28
2024-05-09T21:31:23.795Z,25.30
2024-05-09T21:33:25.637Z,25.30
2024-05-09T21:35:27.636Z,25.29
2024-05-09T21:37:29.310Z,25.29
2024-05-09T21:39:31.227Z,25.31
2024-05-09T21:41:33.159Z,25.30
2024-05-09T21:43:35.060Z,25.31
2024-05-09T21:45:37.269Z,25.30
2024-05-09T21:47:42.306Z,25.28
2024-05-09T21:49:44.478Z,25.29
2024-05-09T21:51:46.216Z,25.31
2024-05-09T21:53:48.876Z,25.29
2024-05-09T21:55:50.699Z,25.28
2024-05-09T21:57:52.548Z,25.28
2024-05-09T21:59:54.331Z,25.29
2024-05-09T22:01:56.217Z,25.28
2024-05-09T22:03:58.299Z,25.27
2024-05-09T22:06:00.549Z,25.27
2024-05-09T22:08:02.447Z,25.26
2024-05-09T22:10:09.918Z,25.28
2024-05-09T22:12:17.559Z,25.31
2024-05-09T22:14:21.152Z,25.30
2024-05-09T22:16:23.299Z,25.31
2024-05-09T22:18:25.185Z,25.30
2024-05-09T22:20:34.424Z,25.30
2024-05-09T22:22:39.729Z,25.28
2024-05-09T22:24:41.454Z,25.29
2024-05-09T22:26:43.135Z,25.29
2024-05-09T22:28:44.932Z,25.29
2024-05-09T22:30:47.646Z,25.26
2024-05-09T22:32:49.682Z,25.27
2024-05-09T22:34:51.426Z,25.27
2024-05-09T22:36:53.740Z,25.28
2024-05-09T22:38:55.440Z,25.29
2024-05-09T22:40:57.139Z,25.27
2024-05-09T22:42:58.921Z,25.28
2024-05-09T22:45:00.590Z,25.28
2024-05-09T22:47:02.794Z,25.26
2024-05-09T22:49:05.042Z,25.29
2024-05-09T22:51:06.954Z,25.27
2024-05-09T22:53:08.665Z,25.27
2024-05-09T22:55:10.423Z,25.29
2024-05-09T22:57:12.196Z,25.27
2024-05-09T22:59:13.932Z,25.28
2024-05-09T23:01:16.125Z,25.27
2024-05-09T23:03:20.846Z,25.27
2024-05-09T23:05:23.189Z,25.27
2024-05-09T23:07:25.261Z,25.27
2024-05-09T23:09:27.022Z,25.28
2024-05-09T23:11:29.113Z,25.27
2024-05-09T23:13:31.254Z,25.29
2024-05-09T23:15:33.100Z,25.26
2024-05-09T23:17:35.188Z,25.30
2024-05-09T23:19:37.282Z,25.30
2024-05-09T23:21:40.672Z,25.30
2024-05-09T23:23:42.506Z,25.30
2024-05-09T23:25:45.377Z,25.30
2024-05-09T23:27:47.491Z,25.27
2024-05-09T23:29:49.280Z,25.28
2024-05-09T23:31:50.968Z,25.28
2024-05-09T23:33:54.770Z,25.28
2024-05-09T23:35:56.728Z,25.26
2024-05-09T23:37:58.455Z,25.28
2024-05-09T23:40:00.386Z,25.28
2024-05-09T23:42:04.171Z,25.30
2024-05-09T23:44:06.091Z,25.28
2024-05-09T23:46:08.642Z,25.31
2024-05-09T23:48:11.163Z,25.32
2024-05-09T23:50:20.213Z,25.31
2024-05-09T23:52:25.558Z,25.31
2024-05-09T23:54:27.259Z,25.29
2024-05-09T23:56:29.018Z,25.29
2024-05-09T23:58:31.487Z,25.30
